Time;durP1;ratioP1;P1;durP2;ratioP2;P2;SDS_P1;SDS_P2;PMS_P1;PMS_P2;Temp;Humidity;BMP_temperature;BMP_pressure;BME280_temperature;BME280_humidity;BME280_pressure;Samples;Min_cycle;Max_cycle;Signal;HPM_P1;HPM_P2
2022/02/23 00:00:44;;;;;;;4.30;1.70;;;4.60;99.90;;;;;;5053148;28;20205;-77
2022/02/23 00:03:10;;;;;;;4.60;1.77;;;4.60;99.90;;;;;;5054075;28;20177;-77
2022/02/23 00:05:36;;;;;;;2.67;1.50;;;4.70;99.90;;;;;;5053851;28;20537;-79
2022/02/23 00:08:03;;;;;;;1.50;1.10;;;4.80;99.90;;;;;;5054019;28;20707;-77
2022/02/23 00:10:29;;;;;;;6.37;1.83;;;4.80;99.90;;;;;;5054351;28;20191;-77
2022/02/23 00:12:54;;;;;;;3.83;1.37;;;4.90;99.90;;;;;;5054691;28;20177;-78
2022/02/23 00:15:20;;;;;;;6.00;1.53;;;4.80;99.90;;;;;;5054932;28;20174;-77
2022/02/23 00:17:46;;;;;;;4.97;1.77;;;4.80;99.90;;;;;;5053910;28;20266;-78
2022/02/23 00:20:13;;;;;;;1.80;1.30;;;4.70;99.90;;;;;;5055130;28;20197;-77
2022/02/23 00:22:39;;;;;;;3.97;1.80;;;4.70;99.90;;;;;;5054865;28;20165;-78
2022/02/23 00:25:05;;;;;;;4.67;1.93;;;4.60;99.90;;;;;;5054784;28;20627;-78
2022/02/23 00:27:31;;;;;;;4.40;1.93;;;4.60;99.90;;;;;;5054604;28;20532;-78
2022/02/23 00:29:56;;;;;;;6.50;1.90;;;4.60;99.90;;;;;;5054368;28;20226;-78
2022/02/23 00:32:22;;;;;;;3.03;1.70;;;4.60;99.90;;;;;;5053263;28;20636;-77
2022/02/23 00:34:48;;;;;;;4.53;1.60;;;4.60;99.90;;;;;;5054132;28;20180;-78
2022/02/23 00:37:14;;;;;;;6.10;1.53;;;4.60;99.90;;;;;;5054573;28;20550;-76
2022/02/23 00:39:40;;;;;;;3.70;1.50;;;4.70;99.90;;;;;;5053694;28;20209;-77
2022/02/23 00:42:06;;;;;;;2.60;1.53;;;4.70;99.90;;;;;;5054016;28;20256;-77
2022/02/23 00:44:31;;;;;;;4.03;1.93;;;4.70;99.90;;;;;;5053472;28;20693;-77
2022/02/23 00:46:59;;;;;;;3.37;1.97;;;4.70;99.90;;;;;;5054053;28;20193;-77
2022/02/23 00:49:25;;;;;;;2.83;1.60;;;4.80;99.90;;;;;;5053578;28;20229;-77
2022/02/23 00:51:51;;;;;;;3.57;1.83;;;4.80;99.90;;;;;;5053670;28;20213;-77
2022/02/23 00:54:18;;;;;;;3.53;1.97;;;4.90;99.90;;;;;;5053744;28;20636;-77
2022/02/23 00:56:45;;;;;;;7.63;1.97;;;4.90;99.90;;;;;;5053752;28;20166;-77
2022/02/23 00:59:11;;;;;;;4.83;1.80;;;5.00;99.90;;;;;;5053956;28;20185;-77
2022/02/23 01:01:36;;;;;;;5.43;1.60;;;5.00;99.90;;;;;;5054581;28;20173;-77
2022/02/23 01:04:02;;;;;;;3.03;1.63;;;5.00;99.90;;;;;;5053429;28;20217;-77
2022/02/23 01:06:28;;;;;;;4.57;1.47;;;5.00;99.90;;;;;;5055177;28;20198;-77
2022/02/23 01:08:53;;;;;;;3.00;1.40;;;5.00;99.90;;;;;;5054004;28;20202;-78
2022/02/23 01:11:22;;;;;;;2.00;1.30;;;4.90;99.90;;;;;;5053921;28;20201;-77
2022/02/23 01:13:49;;;;;;;4.23;1.87;;;4.90;99.90;;;;;;5053446;28;20185;-77
2022/02/23 01:16:15;;;;;;;2.67;1.70;;;4.70;99.90;;;;;;5051980;28;20264;-78
2022/02/23 01:18:41;;;;;;;2.97;1.67;;;4.60;99.90;;;;;;5053152;28;20260;-77
2022/02/23 01:21:07;;;;;;;5.07;1.73;;;4.60;99.90;;;;;;5053689;28;20232;-77
2022/02/23 01:23:33;;;;;;;1.10;1.00;;;4.60;99.90;;;;;;5053536;28;20228;-77
2022/02/23 01:25:58;;;;;;;4.30;1.50;;;4.50;99.90;;;;;;5053260;28;20180;-77
2022/02/23 01:28:24;;;;;;;1.47;1.37;;;4.50;99.90;;;;;;5053411;28;20559;-77
2022/02/23 01:30:50;;;;;;;1.80;1.43;;;4.50;99.90;;;;;;5053028;28;20670;-77
2022/02/23 01:33:16;;;;;;;4.77;1.73;;;4.50;99.90;;;;;;5052447;28;20173;-78
2022/02/23 01:35:41;;;;;;;2.60;1.47;;;4.50;99.90;;;;;;5057577;28;20201;-77
2022/02/23 01:38:07;;;;;;;2.73;1.43;;;4.40;99.90;;;;;;5057338;28;20659;-78
2022/02/23 01:40:32;;;;;;;3.03;1.70;;;4.40;99.90;;;;;;5056807;28;20206;-78
2022/02/23 01:42:58;;;;;;;4.40;1.50;;;4.40;99.90;;;;;;5056869;28;20216;-77
2022/02/23 01:45:24;;;;;;;2.90;2.00;;;4.40;99.90;;;;;;5056797;28;20184;-76
2022/02/23 01:47:50;;;;;;;2.43;1.70;;;4.40;99.90;;;;;;5056662;28;20190;-77
2022/02/23 01:50:16;;;;;;;3.67;1.83;;;4.30;99.90;;;;;;5056675;28;20198;-77
2022/02/23 01:52:42;;;;;;;2.33;1.47;;;4.40;99.90;;;;;;5056559;28;20189;-77
2022/02/23 01:55:09;;;;;;;2.93;1.63;;;4.40;99.90;;;;;;5056424;28;20204;-77
2022/02/23 01:57:35;;;;;;;3.73;1.43;;;4.40;99.90;;;;;;5056521;28;20177;-77
2022/02/23 02:00:00;;;;;;;1.80;1.63;;;4.40;99.90;;;;;;5057122;28;20438;-77
2022/02/23 02:02:26;;;;;;;5.07;1.50;;;4.40;99.90;;;;;;5056913;28;20169;-77
2022/02/23 02:04:53;;;;;;;3.73;1.53;;;4.50;99.90;;;;;;5056525;28;20193;-77
2022/02/23 02:07:19;;;;;;;5.43;1.63;;;4.50;99.90;;;;;;5056212;28;20169;-77
2022/02/23 02:09:45;;;;;;;2.50;1.33;;;4.50;99.90;;;;;;5060830;28;20213;-77
2022/02/23 02:12:10;;;;;;;2.80;1.30;;;4.40;99.90;;;;;;5056681;28;20681;-77
2022/02/23 02:14:36;;;;;;;2.17;1.50;;;4.50;99.90;;;;;;5055909;28;20180;-77
2022/02/23 02:17:02;;;;;;;2.57;1.27;;;4.50;99.90;;;;;;5056040;28;20175;-77
2022/02/23 02:19:27;;;;;;;3.63;1.77;;;4.50;99.90;;;;;;5056172;28;20196;-77
2022/02/23 02:22:01;;;;;;;1.77;1.13;;;4.50;99.90;;;;;;5056163;28;20196;-77
2022/02/23 02:24:29;;;;;;;1.33;1.10;;;4.50;99.90;;;;;;5055730;28;20167;-78
2022/02/23 02:26:57;;;;;;;2.40;1.20;;;4.50;99.90;;;;;;5056101;28;20515;-77
2022/02/23 02:29:23;;;;;;;4.73;1.60;;;4.50;99.90;;;;;;5056100;28;20205;-77
2022/02/23 02:31:49;;;;;;;3.07;1.50;;;4.50;99.90;;;;;;5054570;28;20178;-77
2022/02/23 02:34:15;;;;;;;6.33;1.57;;;4.60;99.90;;;;;;5055617;28;20623;-77
2022/02/23 02:36:42;;;;;;;1.43;1.20;;;4.50;99.90;;;;;;5055835;28;20177;-77
2022/02/23 02:39:07;;;;;;;2.63;1.23;;;4.40;99.90;;;;;;5055535;28;20179;-77
2022/02/23 02:41:34;;;;;;;2.80;1.20;;;4.50;99.90;;;;;;5055734;28;20526;-77
2022/02/23 02:44:00;;;;;;;3.47;1.50;;;4.50;99.90;;;;;;5055534;28;20186;-78
2022/02/23 02:46:26;;;;;;;2.10;1.50;;;4.60;99.90;;;;;;5054709;28;20697;-77
2022/02/23 02:48:52;;;;;;;4.37;1.60;;;4.60;99.90;;;;;;5055415;28;20209;-77
2022/02/23 02:51:18;;;;;;;3.00;1.30;;;4.60;99.90;;;;;;5055440;28;20190;-77
2022/02/23 02:53:44;;;;;;;4.93;1.70;;;4.70;99.90;;;;;;5055633;28;20181;-77
2022/02/23 02:56:09;;;;;;;2.83;1.40;;;4.60;99.90;;;;;;5055028;28;20165;-77
2022/02/23 02:58:35;;;;;;;3.30;1.40;;;4.70;99.90;;;;;;5055233;28;20181;-77
2022/02/23 03:01:01;;;;;;;2.40;1.57;;;4.70;99.90;;;;;;5053949;28;20240;-77
2022/02/23 03:03:27;;;;;;;1.67;1.37;;;4.80;99.90;;;;;;5055556;28;20546;-77
2022/02/23 03:05:53;;;;;;;2.20;1.40;;;4.70;99.90;;;;;;5055277;28;20256;-78
2022/02/23 03:08:18;;;;;;;2.43;1.33;;;4.70;99.90;;;;;;5055325;28;20216;-78
2022/02/23 03:10:44;;;;;;;4.00;1.60;;;4.70;99.90;;;;;;5055383;28;20610;-78
2022/02/23 03:13:10;;;;;;;4.40;1.40;;;4.70;99.90;;;;;;5055320;28;20177;-78
2022/02/23 03:15:36;;;;;;;2.33;1.60;;;4.70;99.90;;;;;;5053924;28;20304;-78
2022/02/23 03:18:03;;;;;;;3.37;1.60;;;4.60;99.90;;;;;;5055798;28;20228;-78
2022/02/23 03:20:29;;;;;;;3.43;1.50;;;4.60;99.90;;;;;;5055197;28;20224;-78
2022/02/23 03:22:54;;;;;;;2.20;1.50;;;4.60;99.90;;;;;;5053856;28;20252;-77
2022/02/23 03:25:20;;;;;;;4.60;1.43;;;4.60;99.90;;;;;;5055110;28;20658;-78
2022/02/23 03:27:46;;;;;;;6.70;1.40;;;4.60;99.90;;;;;;5055093;28;20549;-78
2022/02/23 03:30:13;;;;;;;2.73;1.40;;;4.60;99.90;;;;;;5054654;28;20193;-77
2022/02/23 03:32:38;;;;;;;2.80;1.30;;;4.60;99.90;;;;;;5054569;28;20178;-77
2022/02/23 03:35:05;;;;;;;1.70;1.20;;;4.60;99.90;;;;;;5053415;28;20177;-77
2022/02/23 03:37:31;;;;;;;2.97;1.40;;;4.70;99.90;;;;;;5055811;28;20171;-77
2022/02/23 03:39:56;;;;;;;2.80;1.70;;;4.70;99.90;;;;;;5053877;28;20254;-78
2022/02/23 03:42:22;;;;;;;2.93;1.43;;;4.70;99.90;;;;;;5053596;28;20185;-78
2022/02/23 03:44:47;;;;;;;1.70;1.60;;;4.60;99.90;;;;;;5053449;28;20197;-78
2022/02/23 03:47:13;;;;;;;2.20;1.50;;;4.70;99.90;;;;;;5054188;28;20182;-78
2022/02/23 03:49:39;;;;;;;2.77;1.73;;;4.70;99.90;;;;;;5053342;28;20240;-77
2022/02/23 03:52:05;;;;;;;3.27;1.40;;;4.70;99.90;;;;;;5055057;28;20308;-78
2022/02/23 03:54:31;;;;;;;1.53;1.40;;;4.70;99.90;;;;;;5054931;28;20204;-78
2022/02/23 03:56:56;;;;;;;4.50;2.17;;;4.70;99.90;;;;;;5054667;28;20210;-78
2022/02/23 03:59:22;;;;;;;2.97;1.30;;;4.70;99.90;;;;;;5054412;28;20178;-77
2022/02/23 04:01:48;;;;;;;2.80;1.63;;;4.70;99.90;;;;;;5052754;28;20185;-77
2022/02/23 04:04:15;;;;;;;3.67;1.30;;;4.70;99.90;;;;;;5054165;28;20185;-78
2022/02/23 04:06:40;;;;;;;1.60;1.50;;;4.70;99.90;;;;;;5053951;28;20193;-77
2022/02/23 04:09:10;;;;;;;3.13;1.70;;;4.70;99.90;;;;;;5054124;28;20560;-77
2022/02/23 04:11:37;;;;;;;1.73;1.30;;;4.70;99.90;;;;;;5054495;28;20197;-78
2022/02/23 04:14:04;;;;;;;4.03;2.03;;;4.70;99.90;;;;;;5054156;28;20174;-78
2022/02/23 04:16:30;;;;;;;3.50;1.37;;;4.70;99.90;;;;;;5054198;28;20177;-77
2022/02/23 04:18:55;;;;;;;1.80;1.70;;;4.70;99.90;;;;;;5054041;28;20231;-77
2022/02/23 04:21:21;;;;;;;3.53;1.50;;;4.70;99.90;;;;;;5060070;28;20224;-77
2022/02/23 04:23:47;;;;;;;3.97;1.97;;;4.70;99.90;;;;;;5052938;28;20178;-78
2022/02/23 04:26:16;;;;;;;2.27;1.60;;;4.60;99.90;;;;;;5052481;28;20615;-77
2022/02/23 04:28:42;;;;;;;3.13;1.43;;;4.70;99.90;;;;;;5053622;28;20201;-77
2022/02/23 04:31:08;;;;;;;3.00;1.40;;;4.60;99.90;;;;;;5053461;28;20715;-77
2022/02/23 04:33:35;;;;;;;3.67;1.70;;;4.60;99.90;;;;;;5054270;28;20169;-78
2022/02/23 04:36:01;;;;;;;3.83;1.67;;;4.60;99.90;;;;;;5053970;28;20169;-78
2022/02/23 04:38:27;;;;;;;4.07;1.60;;;4.70;99.90;;;;;;5053973;28;20185;-78
2022/02/23 04:40:53;;;;;;;1.67;1.57;;;4.60;99.90;;;;;;5054614;28;20811;-78
2022/02/23 04:43:18;;;;;;;4.53;1.60;;;4.60;99.90;;;;;;5053675;28;20185;-77
2022/02/23 04:45:44;;;;;;;3.33;1.80;;;4.60;99.90;;;;;;5053261;28;20188;-77
2022/02/23 04:48:10;;;;;;;2.87;1.60;;;4.70;99.90;;;;;;5053282;28;20685;-77
2022/02/23 04:50:36;;;;;;;1.97;1.37;;;4.50;99.90;;;;;;5053325;28;20201;-77
2022/02/23 04:53:02;;;;;;;3.10;1.30;;;4.10;99.90;;;;;;5053381;28;20201;-77
2022/02/23 04:55:28;;;;;;;2.10;1.13;;;3.60;99.90;;;;;;5053989;28;20639;-78
2022/02/23 04:57:53;;;;;;;2.20;1.27;;;3.00;99.90;;;;;;5054209;28;20166;-78
2022/02/23 05:00:19;;;;;;;2.73;1.20;;;2.40;99.90;;;;;;5053639;28;20197;-78
2022/02/23 05:02:44;;;;;;;1.63;1.13;;;2.40;99.90;;;;;;5053571;28;20169;-78
2022/02/23 05:05:10;;;;;;;1.80;1.23;;;2.30;99.90;;;;;;5053106;28;20670;-77
2022/02/23 05:07:36;;;;;;;3.27;1.23;;;2.30;99.90;;;;;;5053221;28;20253;-77
2022/02/23 05:10:03;;;;;;;1.93;1.13;;;2.30;99.90;;;;;;5055978;28;20280;-77
2022/02/23 05:12:30;;;;;;;1.63;1.27;;;2.30;99.90;;;;;;5056550;28;20182;-77
2022/02/23 05:14:56;;;;;;;3.00;1.30;;;2.40;99.90;;;;;;5056384;28;20529;-77
2022/02/23 05:17:21;;;;;;;2.10;1.20;;;2.40;99.90;;;;;;5057180;28;20404;-77
2022/02/23 05:19:47;;;;;;;2.77;1.43;;;2.50;99.90;;;;;;5056940;28;20706;-77
2022/02/23 05:22:13;;;;;;;3.07;1.50;;;2.50;99.90;;;;;;5057200;28;20186;-77
2022/02/23 05:24:39;;;;;;;4.13;1.40;;;2.60;99.90;;;;;;5056684;28;20184;-77
2022/02/23 05:27:05;;;;;;;4.17;1.63;;;2.60;99.90;;;;;;5056783;28;20180;-77
2022/02/23 05:29:31;;;;;;;4.10;1.40;;;2.60;99.90;;;;;;5055341;28;20299;-77
2022/02/23 05:31:58;;;;;;;2.13;1.23;;;3.30;99.90;;;;;;5056916;28;20645;-77
2022/02/23 05:34:24;;;;;;;2.83;1.50;;;2.60;99.90;;;;;;5056508;28;20551;-77
2022/02/23 05:36:50;;;;;;;3.37;1.50;;;2.70;99.90;;;;;;5056911;28;20912;-77
2022/02/23 05:39:15;;;;;;;2.07;1.40;;;2.70;99.90;;;;;;5056424;28;20235;-77
2022/02/23 05:41:41;;;;;;;4.83;1.80;;;2.70;99.90;;;;;;5056525;28;20182;-77
2022/02/23 05:44:07;;;;;;;4.20;1.60;;;2.70;99.90;;;;;;5056262;28;20227;-78
2022/02/23 05:46:33;;;;;;;7.13;2.47;;;3.30;99.90;;;;;;5056422;28;20427;-77
2022/02/23 05:48:59;;;;;;;7.83;3.33;;;2.70;99.90;;;;;;5056539;28;20197;-77
2022/02/23 05:51:30;;;;;;;20.23;10.17;;;2.80;99.90;;;;;;5056258;28;20190;-77
2022/02/23 05:53:57;;;;;;;27.13;13.97;;;2.80;99.90;;;;;;5056209;28;20165;-77
2022/02/23 05:56:22;;;;;;;16.43;9.63;;;2.80;99.90;;;;;;5071595;28;20235;-77
2022/02/23 05:58:48;;;;;;;4.07;2.03;;;2.80;99.90;;;;;;5056491;28;20185;-77
2022/02/23 06:01:14;;;;;;;4.57;3.00;;;2.90;99.90;;;;;;5056063;28;20291;-77
2022/02/23 06:03:40;;;;;;;7.93;2.80;;;2.90;99.90;;;;;;5056063;28;20182;-77
2022/02/23 06:06:06;;;;;;;3.67;1.70;;;3.10;99.90;;;;;;5055594;28;20538;-76
2022/02/23 06:08:31;;;;;;;7.70;4.43;;;2.90;99.90;;;;;;5055873;28;20197;-76
2022/02/23 06:10:57;;;;;;;3.67;2.37;;;2.90;99.90;;;;;;5056021;28;20200;-76
2022/02/23 06:13:23;;;;;;;5.67;3.87;;;2.90;99.90;;;;;;5056296;28;20184;-77
2022/02/23 06:15:49;;;;;;;5.57;3.20;;;3.00;99.90;;;;;;5055802;28;20192;-76
2022/02/23 06:18:15;;;;;;;3.20;1.73;;;3.00;99.90;;;;;;5054807;28;20182;-76
2022/02/23 06:20:41;;;;;;;6.37;1.37;;;3.00;99.90;;;;;;5054633;28;20201;-76
2022/02/23 06:23:07;;;;;;;4.00;1.60;;;3.00;99.90;;;;;;5055784;28;20415;-76
2022/02/23 06:25:33;;;;;;;5.83;2.13;;;2.90;99.90;;;;;;5055618;28;20239;-76
2022/02/23 06:28:02;;;;;;;2.67;1.70;;;3.00;99.90;;;;;;5059619;28;20173;-76
2022/02/23 06:30:28;;;;;;;5.07;1.43;;;3.00;99.90;;;;;;5055894;28;20716;-76
2022/02/23 06:32:53;;;;;;;6.57;1.60;;;3.00;99.90;;;;;;5055559;28;20256;-76
2022/02/23 06:35:19;;;;;;;8.43;1.63;;;3.50;99.90;;;;;;5054195;28;20551;-76
2022/02/23 06:37:45;;;;;;;2.97;1.37;;;3.10;99.90;;;;;;5056157;28;20177;-76
2022/02/23 06:40:12;;;;;;;2.83;1.43;;;3.10;99.90;;;;;;5055335;28;20197;-76
2022/02/23 06:42:37;;;;;;;6.73;1.23;;;3.10;99.90;;;;;;5055477;28;20235;-76
2022/02/23 06:45:05;;;;;;;5.17;1.63;;;3.20;99.90;;;;;;5055262;28;20268;-76
2022/02/23 06:47:31;;;;;;;5.67;1.90;;;3.10;99.90;;;;;;5053670;28;20181;-76
2022/02/23 06:49:56;;;;;;;8.13;4.20;;;3.10;99.90;;;;;;5055126;28;20213;-76
2022/02/23 06:52:22;;;;;;;9.87;4.77;;;3.10;99.90;;;;;;5055437;28;20307;-76
2022/02/23 06:54:49;;;;;;;2.40;1.80;;;3.30;99.90;;;;;;5055089;28;20178;-76
2022/02/23 06:57:15;;;;;;;5.93;1.80;;;;;;;;;;5053909;28;20235;-76
2022/02/23 06:59:41;;;;;;;4.93;2.10;;;3.30;99.90;;;;;;5055014;28;20530;-76
2022/02/23 07:02:08;;;;;;;13.60;2.57;;;3.10;99.90;;;;;;5055065;28;20257;-76
2022/02/23 07:04:34;;;;;;;7.40;2.40;;;;;;;;;;5054590;28;20180;-76
2022/02/23 07:07:00;;;;;;;8.70;2.73;;;3.50;99.90;;;;;;5055233;28;20400;-76
2022/02/23 07:09:26;;;;;;;5.67;2.97;;;3.30;99.90;;;;;;5055016;28;20236;-77
2022/02/23 07:11:52;;;;;;;8.23;2.80;;;3.80;99.90;;;;;;5055092;28;20174;-76
2022/02/23 07:14:19;;;;;;;4.57;2.37;;;3.60;99.90;;;;;;5054346;28;20231;-76
2022/02/23 07:16:45;;;;;;;2.73;2.10;;;3.60;99.90;;;;;;5055063;28;20209;-76
2022/02/23 07:19:11;;;;;;;6.07;2.30;;;3.60;99.90;;;;;;5052771;28;20813;-77
2022/02/23 07:21:38;;;;;;;5.80;2.50;;;3.60;99.90;;;;;;5053195;28;20240;-76
2022/02/23 07:24:04;;;;;;;4.83;1.97;;;3.60;99.90;;;;;;5054436;28;20181;-77
2022/02/23 07:26:31;;;;;;;6.33;2.10;;;3.60;99.90;;;;;;5053187;28;20243;-76
2022/02/23 07:28:57;;;;;;;5.30;1.80;;;3.70;99.90;;;;;;5053191;28;20213;-76
2022/02/23 07:31:22;;;;;;;2.87;1.77;;;3.50;99.90;;;;;;5054001;28;20218;-76
2022/02/23 07:33:48;;;;;;;4.23;1.83;;;3.40;99.90;;;;;;5054440;28;20243;-76
2022/02/23 07:36:15;;;;;;;3.27;1.60;;;3.40;99.90;;;;;;5054236;28;20178;-76
2022/02/23 07:38:42;;;;;;;1.70;1.50;;;3.50;99.90;;;;;;5054309;28;20242;-76
2022/02/23 07:41:11;;;;;;;4.07;2.43;;;3.60;99.90;;;;;;5054473;28;20193;-76
2022/02/23 07:43:37;;;;;;;7.23;2.50;;;3.50;99.90;;;;;;5054145;28;20173;-76
2022/02/23 07:46:03;;;;;;;5.63;2.17;;;3.60;99.90;;;;;;5053952;28;20201;-76
2022/02/23 07:48:28;;;;;;;7.30;2.30;;;3.60;99.90;;;;;;5054112;28;20201;-76
2022/02/23 07:50:55;;;;;;;5.37;2.00;;;;;;;;;;5053946;28;20189;-76
2022/02/23 07:53:21;;;;;;;3.47;2.00;;;3.30;99.90;;;;;;5052771;28;20237;-76
2022/02/23 07:55:47;;;;;;;3.67;1.80;;;3.60;99.90;;;;;;5054135;28;20182;-76
2022/02/23 07:58:12;;;;;;;2.67;1.90;;;3.90;99.90;;;;;;5054312;28;20192;-76
2022/02/23 08:00:39;;;;;;;3.13;2.00;;;3.60;99.90;;;;;;5054581;28;20197;-76
2022/02/23 08:03:05;;;;;;;5.70;1.90;;;3.60;99.90;;;;;;5054641;28;20176;-76
2022/02/23 08:05:31;;;;;;;2.73;1.70;;;3.40;99.90;;;;;;5052580;28;20333;-76
2022/02/23 08:07:57;;;;;;;2.93;1.50;;;3.40;99.90;;;;;;5054130;28;20256;-76
2022/02/23 08:10:25;;;;;;;3.93;1.53;;;3.50;99.90;;;;;;5054285;28;20223;-76
2022/02/23 08:12:55;;;;;;;5.23;1.97;;;;;;;;;;5054425;28;20169;-76
2022/02/23 08:20:50;;;;;;;4.10;2.30;;;3.90;99.90;;;;;;5055210;28;20274;-76
2022/02/23 08:23:17;;;;;;;3.87;1.90;;;3.90;99.90;;;;;;5054439;28;20174;-76
2022/02/23 08:25:43;;;;;;;5.10;2.03;;;3.90;99.90;;;;;;5052788;28;20592;-76
2022/02/23 08:28:09;;;;;;;5.07;2.23;;;4.30;99.90;;;;;;5053856;28;20537;-76
2022/02/23 08:30:34;;;;;;;6.73;1.90;;;4.00;99.90;;;;;;5053780;28;20205;-76
2022/02/23 08:33:03;;;;;;;6.23;2.43;;;4.10;99.90;;;;;;5054008;28;20606;-76
2022/02/23 08:35:32;;;;;;;4.47;2.07;;;4.30;99.90;;;;;;5057913;28;20192;-76
2022/02/23 08:37:59;;;;;;;6.03;1.80;;;4.40;99.90;;;;;;5052533;28;20183;-76
2022/02/23 08:40:26;;;;;;;3.97;1.57;;;3.90;99.90;;;;;;5053230;28;20245;-76
2022/02/23 08:42:53;;;;;;;4.47;1.93;;;4.10;99.90;;;;;;5053211;28;20217;-76
2022/02/23 08:45:18;;;;;;;4.23;1.90;;;4.20;99.90;;;;;;5052912;28;20171;-76
2022/02/23 08:47:44;;;;;;;5.70;1.67;;;4.20;99.90;;;;;;5053640;28;20546;-76
2022/02/23 08:50:10;;;;;;;6.03;1.83;;;4.30;99.90;;;;;;5053144;28;20208;-76
2022/02/23 08:52:36;;;;;;;3.97;2.50;;;4.30;99.90;;;;;;5053491;28;20581;-76
2022/02/23 08:55:02;;;;;;;4.60;1.93;;;4.30;99.90;;;;;;5053062;28;20226;-76
2022/02/23 08:57:29;;;;;;;4.10;2.30;;;4.40;99.90;;;;;;5053125;28;20630;-76
2022/02/23 08:59:54;;;;;;;5.67;2.23;;;4.40;99.90;;;;;;5053164;28;20196;-76
2022/02/23 09:02:20;;;;;;;4.40;1.87;;;4.30;99.90;;;;;;5053179;28;20254;-76
2022/02/23 09:04:45;;;;;;;6.93;2.37;;;4.40;99.90;;;;;;5051649;28;20568;-76
2022/02/23 09:07:13;;;;;;;3.80;2.33;;;4.50;99.90;;;;;;5053751;28;20653;-76
2022/02/23 09:09:39;;;;;;;11.50;4.50;;;;;;;;;;5053044;28;20207;-76
2022/02/23 09:12:05;;;;;;;8.30;3.87;;;4.70;99.90;;;;;;5051926;28;20537;-76
2022/02/23 09:14:31;;;;;;;3.23;2.20;;;4.60;99.90;;;;;;5053097;28;20208;-76
2022/02/23 09:16:57;;;;;;;5.17;2.43;;;4.70;99.90;;;;;;5053027;28;20171;-76
2022/02/23 09:19:23;;;;;;;4.20;2.33;;;4.80;99.90;;;;;;5053510;28;20193;-76
2022/02/23 09:21:48;;;;;;;4.90;2.20;;;4.80;99.90;;;;;;5052989;28;20624;-76
2022/02/23 09:24:14;;;;;;;6.87;3.40;;;5.10;99.90;;;;;;5052989;28;20660;-76
2022/02/23 09:26:40;;;;;;;5.90;2.60;;;5.20;99.90;;;;;;5052979;28;20227;-76
2022/02/23 09:29:06;;;;;;;3.33;1.93;;;5.20;99.90;;;;;;5053052;28;20201;-76
2022/02/23 09:31:32;;;;;;;3.30;1.60;;;5.50;99.90;;;;;;5052806;28;20205;-76
2022/02/23 09:33:58;;;;;;;5.27;2.33;;;5.40;99.90;;;;;;5053004;28;20177;-76
2022/02/23 09:36:24;;;;;;;5.47;1.97;;;5.40;99.90;;;;;;5052594;28;20255;-76
2022/02/23 09:38:53;;;;;;;6.63;1.73;;;5.80;99.90;;;;;;5052779;28;20227;-76
2022/02/23 09:41:21;;;;;;;2.37;1.40;;;6.40;99.90;;;;;;5052738;28;20203;-76
2022/02/23 09:43:48;;;;;;;5.30;1.50;;;6.70;99.90;;;;;;5052663;28;20220;-76
2022/02/23 09:46:21;;;;;;;5.07;1.83;;;7.00;99.90;;;;;;5051544;28;20190;-76
2022/02/23 09:48:48;;;;;;;4.70;1.67;;;7.40;99.90;;;;;;5052902;28;20188;-76
2022/02/23 09:51:14;;;;;;;2.43;1.60;;;7.50;99.90;;;;;;5052611;28;20674;-76
2022/02/23 09:53:45;;;;;;;2.40;1.37;;;7.70;99.90;;;;;;5052607;28;20200;-76
2022/02/23 09:56:17;;;;;;;6.10;1.70;;;7.70;99.90;;;;;;5055390;28;20207;-76
2022/02/23 09:58:43;;;;;;;3.73;1.60;;;8.00;99.90;;;;;;5056625;28;20385;-76
2022/02/23 10:01:09;;;;;;;4.00;2.67;;;7.50;99.90;;;;;;5056256;28;20610;-76
2022/02/23 10:03:35;;;;;;;2.73;1.30;;;7.30;99.90;;;;;;5056219;28;20177;-76
2022/02/23 10:06:01;;;;;;;4.20;1.27;;;7.30;99.90;;;;;;5056066;28;20199;-76
2022/02/23 10:08:32;;;;;;;4.23;1.40;;;7.40;99.90;;;;;;5055985;28;20208;-76
2022/02/23 10:10:59;;;;;;;3.20;1.27;;;7.60;99.90;;;;;;5056208;28;20250;-76
2022/02/23 10:13:25;;;;;;;4.43;1.40;;;7.80;99.90;;;;;;5055979;28;20257;-76
2022/02/23 10:15:51;;;;;;;3.93;1.10;;;7.90;99.90;;;;;;5054679;28;20185;-76
2022/02/23 10:18:20;;;;;;;4.77;1.40;;;7.80;99.90;;;;;;5054917;28;20272;-76
2022/02/23 10:20:47;;;;;;;3.97;1.23;;;8.20;99.90;;;;;;5055902;28;20197;-76
2022/02/23 10:23:18;;;;;;;1.63;1.00;;;8.40;99.90;;;;;;5055940;28;20180;-76
2022/02/23 10:25:58;;;;;;;4.47;1.33;;;8.40;99.90;;;;;;5055681;28;20176;-76
2022/02/23 10:28:26;;;;;;;1.90;1.20;;;8.70;99.90;;;;;;5055691;28;20197;-77
2022/02/23 10:30:54;;;;;;;3.23;1.00;;;9.20;99.90;;;;;;5055990;28;20225;-76
2022/02/23 10:33:23;;;;;;;2.80;1.00;;;9.50;99.90;;;;;;5056430;28;20252;-76
2022/02/23 10:35:52;;;;;;;3.87;1.00;;;9.30;99.90;;;;;;5055555;28;20209;-76
2022/02/23 10:38:28;;;;;;;2.57;0.80;;;9.10;99.90;;;;;;5055671;28;20201;-76
2022/02/23 10:40:57;;;;;;;1.40;0.87;;;9.20;99.90;;;;;;5054401;28;20211;-76
2022/02/23 10:43:24;;;;;;;2.70;0.90;;;9.90;99.90;;;;;;5056107;28;20166;-77
2022/02/23 10:45:52;;;;;;;9.33;2.50;;;10.40;99.90;;;;;;5055303;28;20605;-77
2022/02/23 10:48:41;;;;;;;3.70;1.20;;;10.70;99.90;;;;;;5055326;28;20192;-77
2022/02/23 10:51:09;;;;;;;1.97;0.80;;;11.00;99.90;;;;;;5055284;28;20576;-75
2022/02/23 10:53:36;;;;;;;2.40;0.97;;;11.00;99.90;;;;;;5055298;28;20644;-75
2022/02/23 10:56:23;;;;;;;3.30;0.90;;;10.50;99.90;;;;;;5054508;28;20205;-75
2022/02/23 10:59:02;;;;;;;2.23;0.90;;;11.20;99.90;;;;;;5054009;28;20175;-75
2022/02/23 11:01:29;;;;;;;2.67;1.00;;;11.60;99.90;;;;;;5055071;28;20195;-77
2022/02/23 11:03:55;;;;;;;4.00;1.53;;;12.10;99.90;;;;;;5054915;28;20698;-75
2022/02/23 11:06:25;;;;;;;2.20;1.20;;;12.40;99.90;;;;;;5054034;28;20194;-76
2022/02/23 11:08:51;;;;;;;2.70;1.27;;;12.20;99.90;;;;;;5054896;28;20209;-76
2022/02/23 11:11:22;;;;;;;3.23;1.10;;;12.40;99.90;;;;;;5054843;28;20661;-76
2022/02/23 11:13:49;;;;;;;1.63;1.00;;;12.70;99.90;;;;;;5053697;28;20183;-75
2022/02/23 11:16:16;;;;;;;2.33;1.00;;;13.10;99.90;;;;;;5054647;28;20173;-75
2022/02/23 11:18:44;;;;;;;2.10;1.00;;;13.50;99.90;;;;;;5054838;28;20177;-76
2022/02/23 11:21:15;;;;;;;2.00;1.10;;;13.80;99.90;;;;;;5055373;28;20194;-75
2022/02/23 11:23:43;;;;;;;3.27;1.20;;;13.90;99.90;;;;;;5054981;28;20181;-75
2022/02/23 11:26:15;;;;;;;1.77;0.90;;;14.00;99.90;;;;;;5054746;28;20175;-75
2022/02/23 11:28:55;;;;;;;5.80;1.33;;;14.60;99.60;;;;;;5055343;28;20161;-75
2022/02/23 11:31:22;;;;;;;4.87;1.20;;;14.50;99.90;;;;;;5054727;28;20192;-76
2022/02/23 11:33:47;;;;;;;2.00;1.00;;;14.80;99.90;;;;;;5054753;28;20174;-76
2022/02/23 11:36:20;;;;;;;2.07;0.93;;;14.30;98.00;;;;;;5054372;28;20178;-75
2022/02/23 11:38:50;;;;;;;2.53;1.10;;;14.00;99.70;;;;;;5054620;28;20209;-75
2022/02/23 11:41:27;;;;;;;2.20;1.13;;;13.90;99.40;;;;;;5054364;28;20556;-75
2022/02/23 11:44:15;;;;;;;3.53;1.27;;;14.00;99.90;;;;;;5054875;28;20199;-75
2022/02/23 11:47:08;;;;;;;2.77;1.20;;;14.00;99.00;;;;;;5054981;28;20150;-77
2022/02/23 11:52:21;;;;;;;1.83;1.00;;;13.70;97.10;;;;;;5055065;28;20646;-75
2022/02/23 11:55:08;;;;;;;2.23;1.40;;;12.60;97.60;;;;;;5054396;28;20160;-74
2022/02/23 12:01:01;;;;;;;3.00;1.77;;;11.00;99.90;;;;;;5053941;28;20243;-77
2022/02/23 12:03:28;;;;;;;2.17;1.07;;;11.80;99.90;;;;;;5054342;28;20196;-77
2022/02/23 12:05:57;;;;;;;1.37;1.03;;;12.30;99.90;;;;;;5053638;28;20269;-77
2022/02/23 12:08:31;;;;;;;2.50;1.13;;;12.10;99.90;;;;;;5053072;28;20195;-77
2022/02/23 12:11:16;;;;;;;3.20;1.60;;;11.60;99.90;;;;;;5052476;28;20686;-76
2022/02/23 12:13:43;;;;;;;1.47;1.00;;;11.10;99.90;;;;;;5052669;28;20688;-76
2022/02/23 12:16:38;;;;;;;3.33;1.30;;;10.80;99.90;;;;;;5053824;28;20249;-76
2022/02/23 12:19:06;;;;;;;2.20;1.10;;;10.80;99.90;;;;;;5053666;28;20217;-76
2022/02/23 12:21:43;;;;;;;5.83;1.70;;;10.60;99.90;;;;;;5053673;28;20183;-76
2022/02/23 12:24:19;;;;;;;3.93;1.60;;;10.20;99.90;;;;;;5053843;28;20181;-76
2022/02/23 12:26:47;;;;;;;2.60;1.67;;;10.00;99.90;;;;;;5053663;28;20180;-76
2022/02/23 12:29:16;;;;;;;3.23;1.30;;;10.00;99.90;;;;;;5053550;28;20188;-76
2022/02/23 12:31:46;;;;;;;2.00;1.17;;;9.80;99.90;;;;;;5053630;28;20174;-76
2022/02/23 12:34:17;;;;;;;1.10;0.80;;;9.70;99.90;;;;;;5054155;28;20181;-76
2022/02/23 12:36:51;;;;;;;2.10;0.87;;;9.50;99.90;;;;;;5053928;28;20188;-76
2022/02/23 12:39:29;;;;;;;2.93;1.10;;;9.40;99.90;;;;;;5053009;28;20205;-76
2022/02/23 12:42:05;;;;;;;7.00;2.20;;;9.40;99.90;;;;;;5053970;28;20173;-76
2022/02/23 12:44:34;;;;;;;2.43;1.17;;;9.30;99.90;;;;;;5053570;28;20154;-76
2022/02/23 12:47:02;;;;;;;4.77;1.17;;;9.30;99.90;;;;;;5053603;28;20173;-76
2022/02/23 12:49:30;;;;;;;2.77;1.30;;;9.30;99.90;;;;;;5053741;28;20580;-76
2022/02/23 12:51:56;;;;;;;2.90;1.20;;;9.30;99.90;;;;;;5057742;28;20196;-76
2022/02/23 12:54:25;;;;;;;3.17;1.47;;;9.30;99.90;;;;;;5053272;28;20173;-76
2022/02/23 12:57:01;;;;;;;2.37;1.07;;;9.20;99.90;;;;;;5053339;28;20256;-76
2022/02/23 12:59:29;;;;;;;2.33;1.43;;;9.10;99.90;;;;;;5053476;28;20197;-77
2022/02/23 13:01:58;;;;;;;2.20;1.40;;;9.10;99.90;;;;;;5053522;28;20169;-76
2022/02/23 13:04:35;;;;;;;2.33;1.17;;;9.00;99.90;;;;;;5053328;28;20173;-76
2022/02/23 13:07:12;;;;;;;5.17;1.60;;;10.40;99.90;;;;;;5053329;28;20189;-76
2022/02/23 13:09:40;;;;;;;3.27;1.70;;;13.10;99.90;;;;;;5053151;28;20276;-76